< < Back
Terminal Aerodrome Forecast


Current Version              Previous Versions:   1  2  3  4  5  6  7  8  9  

Terminal Aerodrome Forecast

992
FTUS44 KHUN 290520
TAFHSV
TAF
KHSV 290520Z 2906/3006 VRB03KT P6SM SCT150
     FM291600 30010KT P6SM SCT040
     FM300000 VRB03KT P6SM SKC=

Latest METAR

360
SAUS80 KWBC 291700 RRB
MTRHSV
METAR KHSV 291653Z 34008KT 10SM BKN040 BKN050 29/18 A3013 RMK AO2 SLP197
T02890183


USA.gov is the U.S. government's official web portal to all federal, state and local government web resources and services.